Whitman, NE (69366)

9:23 AM MST on December 08, 2016 (GMT -0700)
Thedford | | Change Station

Elev 2927 ft 41.96 °N, 100.57 °W | Updated 8 minutes ago

Clear
Clear
10 °F
Feels Like -5 °F
N
12
Wind Variable Wind from NNW
Gusts 20 mph

Today
High -- | Low -- °F
--% Chance of Precip.
Yesterday
High -- | Low -- °F
Precip. -- in
Pressure 30.61 in
Visibility 10.0 miles
Clouds Clear
Windchill -5 °F
Dew Point 0 °F
Humidity 66%
Rainfall 0.00 in
Snow Depth Not available.
7:02 AM 4:14 PM
Waxing Gibbous, 64% visible
METAR KTIF 081615Z AUTO 33010G17KT 10SM CLR M12/M17 A3061 RMK AO2 T11241175
Pressure 30.61 in
Visibility 10.0 miles
Clouds Clear
Windchill -5 °F
Dew Point 0 °F
Humidity 66%
Rainfall 0.00 in
Snow Depth Not available.
7:02 AM 4:14 PM
Waxing Gibbous, 64% visible
METAR KTIF 081615Z AUTO 33010G17KT 10SM CLR M12/M17 A3061 RMK AO2 T11241175

10-Day Weather Forecast

Almanac

Astronomy

Dec. 08, 2016 Rise Set
Actual Time
Civil Twilight
Nautical Twilight
Astronomical Twilight
Moon
Length of Visible Light
Length of Day
Tomorrow will be .
, % of the Moon is Illuminated

Today's Extremes

State Highs State Lows

Community

WunderPhotos

Upload Photos

1,956,274 photos uploaded!

WunderBlog® & News

Nearby

Air Quality

  Air Quality AQ Index Pollutant
Not available.

Snow Depth

Station Depth Elevation

Earthquake Activity

City Distance Mag. Time & Date
Minimum magnitude displayed is 2.5.

Coastal Water Temperatures

Place Temperature

Stations

Nearby Weather Stations

Station Location Temp. Windchill Dew Point Humidity Wind Precip. Elev Updated Type
                   

Watches & Warnings

There are currently no watches in effect.